sensor_id;sensor_type;location;lat;lon;timestamp;temperature;humidity
52965;DHT22;42923;53.220;6.528;2023-09-07T00:00:48;20.70;99.90
52965;DHT22;42923;53.220;6.528;2023-09-07T00:03:14;20.70;99.90
52965;DHT22;42923;53.220;6.528;2023-09-07T00:05:41;20.60;99.90
52965;DHT22;42923;53.220;6.528;2023-09-07T00:08:07;20.60;99.90
52965;DHT22;42923;53.220;6.528;2023-09-07T00:10:33;20.50;99.90
52965;DHT22;42923;53.220;6.528;2023-09-07T00:13:03;20.60;99.90
52965;DHT22;42923;53.220;6.528;2023-09-07T00:15:29;20.50;99.90
52965;DHT22;42923;53.220;6.528;2023-09-07T00:17:56;20.50;99.90
52965;DHT22;42923;53.220;6.528;2023-09-07T00:20:23;20.50;99.90
52965;DHT22;42923;53.220;6.528;2023-09-07T00:22:49;20.40;99.90
52965;DHT22;42923;53.220;6.528;2023-09-07T00:25:15;20.40;99.90
52965;DHT22;42923;53.220;6.528;2023-09-07T00:27:41;20.30;99.90
52965;DHT22;42923;53.220;6.528;2023-09-07T00:30:07;20.20;99.90
52965;DHT22;42923;53.220;6.528;2023-09-07T00:32:38;20.20;99.90
52965;DHT22;42923;53.220;6.528;2023-09-07T00:35:05;20.10;99.90
52965;DHT22;42923;53.220;6.528;2023-09-07T00:37:32;20.00;99.90
52965;DHT22;42923;53.220;6.528;2023-09-07T00:39:58;20.00;99.90
52965;DHT22;42923;53.220;6.528;2023-09-07T00:42:23;19.90;99.90
52965;DHT22;42923;53.220;6.528;2023-09-07T00:44:49;19.90;99.90
52965;DHT22;42923;53.220;6.528;2023-09-07T00:47:15;19.90;99.90
52965;DHT22;42923;53.220;6.528;2023-09-07T00:49:42;19.80;99.90
52965;DHT22;42923;53.220;6.528;2023-09-07T00:52:08;19.70;99.90
52965;DHT22;42923;53.220;6.528;2023-09-07T00:54:39;19.70;99.90
52965;DHT22;42923;53.220;6.528;2023-09-07T00:57:07;19.60;99.90
52965;DHT22;42923;53.220;6.528;2023-09-07T00:59:33;19.50;99.90
52965;DHT22;42923;53.220;6.528;2023-09-07T01:01:59;19.40;99.90
52965;DHT22;42923;53.220;6.528;2023-09-07T01:04:25;19.30;99.90
52965;DHT22;42923;53.220;6.528;2023-09-07T01:06:56;19.20;99.90
52965;DHT22;42923;53.220;6.528;2023-09-07T01:09:28;19.20;99.90
52965;DHT22;42923;53.220;6.528;2023-09-07T01:11:56;19.10;99.90
52965;DHT22;42923;53.220;6.528;2023-09-07T01:14:22;19.00;99.90
52965;DHT22;42923;53.220;6.528;2023-09-07T01:16:49;19.00;99.90
52965;DHT22;42923;53.220;6.528;2023-09-07T01:19:15;19.00;99.90
52965;DHT22;42923;53.220;6.528;2023-09-07T01:21:41;18.90;99.90
52965;DHT22;42923;53.220;6.528;2023-09-07T01:24:09;18.90;99.90
52965;DHT22;42923;53.220;6.528;2023-09-07T01:26:36;18.80;99.90
52965;DHT22;42923;53.220;6.528;2023-09-07T01:29:07;18.80;99.90
52965;DHT22;42923;53.220;6.528;2023-09-07T01:31:38;18.80;99.90
52965;DHT22;42923;53.220;6.528;2023-09-07T01:34:05;18.70;99.90
52965;DHT22;42923;53.220;6.528;2023-09-07T01:36:32;18.70;99.90
52965;DHT22;42923;53.220;6.528;2023-09-07T01:38:58;18.70;99.90
52965;DHT22;42923;53.220;6.528;2023-09-07T01:41:24;18.70;99.90
52965;DHT22;42923;53.220;6.528;2023-09-07T01:43:50;18.70;99.90
52965;DHT22;42923;53.220;6.528;2023-09-07T01:46:16;18.70;99.90
52965;DHT22;42923;53.220;6.528;2023-09-07T01:48:42;18.80;99.90
52965;DHT22;42923;53.220;6.528;2023-09-07T01:51:08;18.70;99.90
52965;DHT22;42923;53.220;6.528;2023-09-07T01:53:34;18.70;99.90
52965;DHT22;42923;53.220;6.528;2023-09-07T01:56:00;18.70;99.90
52965;DHT22;42923;53.220;6.528;2023-09-07T01:58:26;18.60;99.90
52965;DHT22;42923;53.220;6.528;2023-09-07T02:00:58;18.70;99.90
52965;DHT22;42923;53.220;6.528;2023-09-07T02:03:25;18.70;99.90
52965;DHT22;42923;53.220;6.528;2023-09-07T02:05:55;18.60;99.90
52965;DHT22;42923;53.220;6.528;2023-09-07T02:08:21;18.60;99.90
52965;DHT22;42923;53.220;6.528;2023-09-07T02:10:46;18.50;99.90
52965;DHT22;42923;53.220;6.528;2023-09-07T02:13:13;18.50;99.90
52965;DHT22;42923;53.220;6.528;2023-09-07T02:15:39;18.40;99.90
52965;DHT22;42923;53.220;6.528;2023-09-07T02:18:05;18.40;99.90
52965;DHT22;42923;53.220;6.528;2023-09-07T02:20:34;18.40;99.90
52965;DHT22;42923;53.220;6.528;2023-09-07T02:23:00;18.30;99.90
52965;DHT22;42923;53.220;6.528;2023-09-07T02:25:26;18.20;99.90
52965;DHT22;42923;53.220;6.528;2023-09-07T02:27:53;18.20;99.90
52965;DHT22;42923;53.220;6.528;2023-09-07T02:30:19;18.20;99.90
52965;DHT22;42923;53.220;6.528;2023-09-07T02:32:45;18.10;99.90
52965;DHT22;42923;53.220;6.528;2023-09-07T02:35:11;18.10;99.90
52965;DHT22;42923;53.220;6.528;2023-09-07T02:37:38;18.00;99.90
52965;DHT22;42923;53.220;6.528;2023-09-07T02:40:06;17.90;99.90
52965;DHT22;42923;53.220;6.528;2023-09-07T02:42:35;17.90;99.90
52965;DHT22;42923;53.220;6.528;2023-09-07T02:45:01;17.80;99.90
52965;DHT22;42923;53.220;6.528;2023-09-07T02:47:27;17.70;99.90
52965;DHT22;42923;53.220;6.528;2023-09-07T02:49:53;17.70;99.90
52965;DHT22;42923;53.220;6.528;2023-09-07T02:52:19;17.60;99.90
52965;DHT22;42923;53.220;6.528;2023-09-07T02:54:45;17.50;99.90
52965;DHT22;42923;53.220;6.528;2023-09-07T02:57:12;17.50;99.90
52965;DHT22;42923;53.220;6.528;2023-09-07T02:59:38;17.40;99.90
52965;DHT22;42923;53.220;6.528;2023-09-07T03:02:04;17.30;99.90
52965;DHT22;42923;53.220;6.528;2023-09-07T03:04:30;17.30;99.90
52965;DHT22;42923;53.220;6.528;2023-09-07T03:06:56;17.20;99.90
52965;DHT22;42923;53.220;6.528;2023-09-07T03:09:22;17.20;99.90
52965;DHT22;42923;53.220;6.528;2023-09-07T03:11:48;17.20;99.90
52965;DHT22;42923;53.220;6.528;2023-09-07T03:14:14;17.10;99.90
52965;DHT22;42923;53.220;6.528;2023-09-07T03:16:40;17.10;99.90
52965;DHT22;42923;53.220;6.528;2023-09-07T03:19:07;17.00;99.90
52965;DHT22;42923;53.220;6.528;2023-09-07T03:21:33;17.00;99.90
52965;DHT22;42923;53.220;6.528;2023-09-07T03:23:59;17.00;99.90
52965;DHT22;42923;53.220;6.528;2023-09-07T03:26:26;16.90;99.90
52965;DHT22;42923;53.220;6.528;2023-09-07T03:28:52;16.90;99.90
52965;DHT22;42923;53.220;6.528;2023-09-07T03:31:18;17.00;99.90
52965;DHT22;42923;53.220;6.528;2023-09-07T03:33:45;16.90;99.90
52965;DHT22;42923;53.220;6.528;2023-09-07T03:36:12;16.90;99.90
52965;DHT22;42923;53.220;6.528;2023-09-07T03:38:41;16.80;99.90
52965;DHT22;42923;53.220;6.528;2023-09-07T03:41:07;16.80;99.90
52965;DHT22;42923;53.220;6.528;2023-09-07T03:43:33;16.80;99.90
52965;DHT22;42923;53.220;6.528;2023-09-07T03:45:59;16.80;99.90
52965;DHT22;42923;53.220;6.528;2023-09-07T03:48:25;16.80;99.90
52965;DHT22;42923;53.220;6.528;2023-09-07T03:50:51;16.80;99.90
52965;DHT22;42923;53.220;6.528;2023-09-07T03:53:17;16.80;99.90
52965;DHT22;42923;53.220;6.528;2023-09-07T03:55:44;16.80;99.90
52965;DHT22;42923;53.220;6.528;2023-09-07T03:58:11;16.80;99.90
52965;DHT22;42923;53.220;6.528;2023-09-07T04:00:41;16.80;99.90
52965;DHT22;42923;53.220;6.528;2023-09-07T04:03:08;16.80;99.90
52965;DHT22;42923;53.220;6.528;2023-09-07T04:05:37;16.80;99.90
52965;DHT22;42923;53.220;6.528;2023-09-07T04:08:03;16.80;99.90
52965;DHT22;42923;53.220;6.528;2023-09-07T04:10:29;16.70;99.90
52965;DHT22;42923;53.220;6.528;2023-09-07T04:12:55;16.80;99.90
52965;DHT22;42923;53.220;6.528;2023-09-07T04:15:20;16.80;99.90
52965;DHT22;42923;53.220;6.528;2023-09-07T04:17:46;16.80;99.90
52965;DHT22;42923;53.220;6.528;2023-09-07T04:20:12;16.80;99.90
52965;DHT22;42923;53.220;6.528;2023-09-07T04:22:39;16.80;99.90
52965;DHT22;42923;53.220;6.528;2023-09-07T04:25:06;16.80;99.90
52965;DHT22;42923;53.220;6.528;2023-09-07T04:27:33;16.80;99.90
52965;DHT22;42923;53.220;6.528;2023-09-07T04:29:59;16.70;99.90
52965;DHT22;42923;53.220;6.528;2023-09-07T04:32:26;16.80;99.90
52965;DHT22;42923;53.220;6.528;2023-09-07T04:34:56;16.80;99.90
52965;DHT22;42923;53.220;6.528;2023-09-07T04:37:22;16.80;99.90
52965;DHT22;42923;53.220;6.528;2023-09-07T04:39:52;16.70;99.90
52965;DHT22;42923;53.220;6.528;2023-09-07T04:42:21;16.80;99.90
52965;DHT22;42923;53.220;6.528;2023-09-07T04:44:47;16.80;99.90
52965;DHT22;42923;53.220;6.528;2023-09-07T04:47:14;16.80;99.90
52965;DHT22;42923;53.220;6.528;2023-09-07T04:49:41;16.80;99.90
52965;DHT22;42923;53.220;6.528;2023-09-07T04:52:08;16.70;99.90
52965;DHT22;42923;53.220;6.528;2023-09-07T04:54:35;16.80;99.90
52965;DHT22;42923;53.220;6.528;2023-09-07T04:57:00;16.80;99.90
52965;DHT22;42923;53.220;6.528;2023-09-07T04:59:26;16.70;99.90
52965;DHT22;42923;53.220;6.528;2023-09-07T05:01:52;16.70;99.90
52965;DHT22;42923;53.220;6.528;2023-09-07T05:04:18;16.70;99.90
52965;DHT22;42923;53.220;6.528;2023-09-07T05:06:44;16.70;99.90
52965;DHT22;42923;53.220;6.528;2023-09-07T05:09:09;16.70;99.90
52965;DHT22;42923;53.220;6.528;2023-09-07T05:11:35;16.70;99.90
52965;DHT22;42923;53.220;6.528;2023-09-07T05:14:02;16.70;99.90
52965;DHT22;42923;53.220;6.528;2023-09-07T05:16:28;16.70;99.90
52965;DHT22;42923;53.220;6.528;2023-09-07T05:18:54;16.80;99.90
52965;DHT22;42923;53.220;6.528;2023-09-07T05:21:20;16.80;99.90
52965;DHT22;42923;53.220;6.528;2023-09-07T05:23:46;16.90;99.90
52965;DHT22;42923;53.220;6.528;2023-09-07T05:26:12;16.90;99.90
52965;DHT22;42923;53.220;6.528;2023-09-07T05:28:40;16.90;99.90
52965;DHT22;42923;53.220;6.528;2023-09-07T05:31:10;17.00;99.90
52965;DHT22;42923;53.220;6.528;2023-09-07T05:33:36;17.00;99.90
52965;DHT22;42923;53.220;6.528;2023-09-07T05:36:02;17.00;99.90
52965;DHT22;42923;53.220;6.528;2023-09-07T05:38:28;17.00;99.90
52965;DHT22;42923;53.220;6.528;2023-09-07T05:40:54;17.00;99.90
52965;DHT22;42923;53.220;6.528;2023-09-07T05:43:22;17.00;99.90
52965;DHT22;42923;53.220;6.528;2023-09-07T05:45:48;17.00;99.90
52965;DHT22;42923;53.220;6.528;2023-09-07T05:48:13;17.10;99.90
52965;DHT22;42923;53.220;6.528;2023-09-07T05:50:42;17.10;99.90
52965;DHT22;42923;53.220;6.528;2023-09-07T05:53:08;17.20;99.90
52965;DHT22;42923;53.220;6.528;2023-09-07T05:55:35;17.10;99.90
52965;DHT22;42923;53.220;6.528;2023-09-07T05:58:06;17.20;99.90
52965;DHT22;42923;53.220;6.528;2023-09-07T06:00:35;17.30;99.90
52965;DHT22;42923;53.220;6.528;2023-09-07T06:03:01;17.30;99.90
52965;DHT22;42923;53.220;6.528;2023-09-07T06:05:29;17.40;99.90
52965;DHT22;42923;53.220;6.528;2023-09-07T06:07:55;17.50;99.90
52965;DHT22;42923;53.220;6.528;2023-09-07T06:10:21;17.60;99.90
52965;DHT22;42923;53.220;6.528;2023-09-07T06:12:48;17.70;99.90
52965;DHT22;42923;53.220;6.528;2023-09-07T06:15:16;17.80;99.90
52965;DHT22;42923;53.220;6.528;2023-09-07T06:17:42;17.90;99.90
52965;DHT22;42923;53.220;6.528;2023-09-07T06:20:08;18.00;99.90
52965;DHT22;42923;53.220;6.528;2023-09-07T06:22:34;18.10;99.90
52965;DHT22;42923;53.220;6.528;2023-09-07T06:25:00;18.10;99.90
52965;DHT22;42923;53.220;6.528;2023-09-07T06:27:26;18.20;99.90
52965;DHT22;42923;53.220;6.528;2023-09-07T06:29:52;18.40;99.90
52965;DHT22;42923;53.220;6.528;2023-09-07T06:32:18;18.40;99.90
52965;DHT22;42923;53.220;6.528;2023-09-07T06:34:44;18.60;99.90
52965;DHT22;42923;53.220;6.528;2023-09-07T06:37:11;18.70;99.90
52965;DHT22;42923;53.220;6.528;2023-09-07T06:39:38;18.80;99.90
52965;DHT22;42923;53.220;6.528;2023-09-07T06:42:04;18.90;99.90
52965;DHT22;42923;53.220;6.528;2023-09-07T06:44:37;19.00;99.90
52965;DHT22;42923;53.220;6.528;2023-09-07T06:47:03;19.10;99.90
52965;DHT22;42923;53.220;6.528;2023-09-07T06:49:29;19.20;99.90
52965;DHT22;42923;53.220;6.528;2023-09-07T06:51:56;19.30;99.90
52965;DHT22;42923;53.220;6.528;2023-09-07T06:54:22;19.40;99.90
52965;DHT22;42923;53.220;6.528;2023-09-07T06:56:48;19.50;99.90
52965;DHT22;42923;53.220;6.528;2023-09-07T06:59:14;19.60;99.90
52965;DHT22;42923;53.220;6.528;2023-09-07T07:01:40;19.80;99.90
52965;DHT22;42923;53.220;6.528;2023-09-07T07:04:06;19.90;99.90
52965;DHT22;42923;53.220;6.528;2023-09-07T07:06:33;20.10;99.90
52965;DHT22;42923;53.220;6.528;2023-09-07T07:08:59;20.20;99.90
52965;DHT22;42923;53.220;6.528;2023-09-07T07:11:27;20.30;99.90
52965;DHT22;42923;53.220;6.528;2023-09-07T07:13:53;20.40;99.90
52965;DHT22;42923;53.220;6.528;2023-09-07T07:16:19;20.50;99.90
52965;DHT22;42923;53.220;6.528;2023-09-07T07:18:44;20.70;99.90
52965;DHT22;42923;53.220;6.528;2023-09-07T07:21:11;20.80;99.90
52965;DHT22;42923;53.220;6.528;2023-09-07T07:23:37;20.80;99.90
52965;DHT22;42923;53.220;6.528;2023-09-07T07:26:03;20.90;99.90
52965;DHT22;42923;53.220;6.528;2023-09-07T07:28:29;21.00;99.90
52965;DHT22;42923;53.220;6.528;2023-09-07T07:30:55;21.20;99.90
52965;DHT22;42923;53.220;6.528;2023-09-07T07:33:22;21.30;99.90
52965;DHT22;42923;53.220;6.528;2023-09-07T07:35:49;21.40;99.90
52965;DHT22;42923;53.220;6.528;2023-09-07T07:38:15;21.50;99.90
52965;DHT22;42923;53.220;6.528;2023-09-07T07:40:42;21.60;99.90
52965;DHT22;42923;53.220;6.528;2023-09-07T07:43:09;21.60;99.90
52965;DHT22;42923;53.220;6.528;2023-09-07T07:45:36;21.80;99.90
52965;DHT22;42923;53.220;6.528;2023-09-07T07:48:04;21.90;99.90
52965;DHT22;42923;53.220;6.528;2023-09-07T07:50:38;22.00;99.90
52965;DHT22;42923;53.220;6.528;2023-09-07T07:53:10;22.10;99.90
52965;DHT22;42923;53.220;6.528;2023-09-07T07:55:37;22.10;99.90
52965;DHT22;42923;53.220;6.528;2023-09-07T07:58:09;22.20;99.90
52965;DHT22;42923;53.220;6.528;2023-09-07T08:00:37;22.30;99.90
52965;DHT22;42923;53.220;6.528;2023-09-07T08:03:05;22.30;99.90
52965;DHT22;42923;53.220;6.528;2023-09-07T08:05:33;22.40;99.90
52965;DHT22;42923;53.220;6.528;2023-09-07T08:08:00;22.40;99.90
52965;DHT22;42923;53.220;6.528;2023-09-07T08:10:27;22.50;99.90
52965;DHT22;42923;53.220;6.528;2023-09-07T08:12:54;22.60;99.90
52965;DHT22;42923;53.220;6.528;2023-09-07T08:15:21;22.60;99.90
52965;DHT22;42923;53.220;6.528;2023-09-07T08:17:49;22.70;99.90
52965;DHT22;42923;53.220;6.528;2023-09-07T08:20:15;22.70;99.90
52965;DHT22;42923;53.220;6.528;2023-09-07T08:22:42;22.90;99.90
52965;DHT22;42923;53.220;6.528;2023-09-07T08:25:10;23.00;99.90
52965;DHT22;42923;53.220;6.528;2023-09-07T08:27:43;23.20;99.90
52965;DHT22;42923;53.220;6.528;2023-09-07T08:30:15;23.40;99.90
52965;DHT22;42923;53.220;6.528;2023-09-07T08:32:43;23.50;99.90
52965;DHT22;42923;53.220;6.528;2023-09-07T08:35:10;23.50;99.90
52965;DHT22;42923;53.220;6.528;2023-09-07T08:37:39;23.60;99.90
52965;DHT22;42923;53.220;6.528;2023-09-07T08:40:05;23.70;99.90
52965;DHT22;42923;53.220;6.528;2023-09-07T08:42:40;23.70;99.90
52965;DHT22;42923;53.220;6.528;2023-09-07T08:45:08;23.80;99.90
52965;DHT22;42923;53.220;6.528;2023-09-07T08:47:37;23.90;99.90
52965;DHT22;42923;53.220;6.528;2023-09-07T08:50:04;24.00;99.90
52965;DHT22;42923;53.220;6.528;2023-09-07T08:52:32;24.00;99.90
52965;DHT22;42923;53.220;6.528;2023-09-07T08:54:58;24.10;99.90
52965;DHT22;42923;53.220;6.528;2023-09-07T08:57:26;24.10;99.90
52965;DHT22;42923;53.220;6.528;2023-09-07T08:59:53;24.10;99.90
52965;DHT22;42923;53.220;6.528;2023-09-07T09:02:19;24.20;99.90
52965;DHT22;42923;53.220;6.528;2023-09-07T09:04:46;24.20;99.90
52965;DHT22;42923;53.220;6.528;2023-09-07T09:07:11;24.30;99.90
52965;DHT22;42923;53.220;6.528;2023-09-07T09:09:37;24.30;99.90
52965;DHT22;42923;53.220;6.528;2023-09-07T09:12:13;24.40;99.90
52965;DHT22;42923;53.220;6.528;2023-09-07T09:14:42;24.50;99.90
52965;DHT22;42923;53.220;6.528;2023-09-07T09:17:14;24.60;99.90
52965;DHT22;42923;53.220;6.528;2023-09-07T09:19:40;24.60;99.90
52965;DHT22;42923;53.220;6.528;2023-09-07T09:22:07;24.70;99.90
52965;DHT22;42923;53.220;6.528;2023-09-07T09:24:33;24.90;99.90
52965;DHT22;42923;53.220;6.528;2023-09-07T09:27:00;25.00;99.90
52965;DHT22;42923;53.220;6.528;2023-09-07T09:29:26;25.10;99.90
52965;DHT22;42923;53.220;6.528;2023-09-07T09:31:53;25.10;99.90
52965;DHT22;42923;53.220;6.528;2023-09-07T09:34:19;25.20;99.90
52965;DHT22;42923;53.220;6.528;2023-09-07T09:36:45;25.20;99.90
52965;DHT22;42923;53.220;6.528;2023-09-07T09:39:21;25.30;99.90
52965;DHT22;42923;53.220;6.528;2023-09-07T09:41:48;25.40;99.90
52965;DHT22;42923;53.220;6.528;2023-09-07T09:44:16;25.40;99.90
52965;DHT22;42923;53.220;6.528;2023-09-07T09:46:42;25.50;99.90
52965;DHT22;42923;53.220;6.528;2023-09-07T09:49:09;25.60;99.90
52965;DHT22;42923;53.220;6.528;2023-09-07T09:51:37;25.60;99.90
52965;DHT22;42923;53.220;6.528;2023-09-07T09:54:05;25.70;99.90
52965;DHT22;42923;53.220;6.528;2023-09-07T09:56:31;25.70;99.90
52965;DHT22;42923;53.220;6.528;2023-09-07T09:58:57;25.70;99.90
52965;DHT22;42923;53.220;6.528;2023-09-07T10:01:23;25.80;99.90
52965;DHT22;42923;53.220;6.528;2023-09-07T10:03:50;25.90;99.90
52965;DHT22;42923;53.220;6.528;2023-09-07T10:06:25;25.90;99.90
52965;DHT22;42923;53.220;6.528;2023-09-07T10:09:03;26.10;99.90
52965;DHT22;42923;53.220;6.528;2023-09-07T10:11:33;26.20;99.90
52965;DHT22;42923;53.220;6.528;2023-09-07T10:14:00;26.20;99.90
52965;DHT22;42923;53.220;6.528;2023-09-07T10:16:40;26.30;99.90
52965;DHT22;42923;53.220;6.528;2023-09-07T10:19:14;26.40;99.90
52965;DHT22;42923;53.220;6.528;2023-09-07T10:21:40;26.60;99.90
52965;DHT22;42923;53.220;6.528;2023-09-07T10:24:06;26.80;99.90
52965;DHT22;42923;53.220;6.528;2023-09-07T10:26:32;27.00;99.90
52965;DHT22;42923;53.220;6.528;2023-09-07T10:29:01;27.40;99.90
52965;DHT22;42923;53.220;6.528;2023-09-07T10:31:29;27.90;99.90
52965;DHT22;42923;53.220;6.528;2023-09-07T10:34:08;28.30;99.90
52965;DHT22;42923;53.220;6.528;2023-09-07T10:36:37;28.80;99.90
52965;DHT22;42923;53.220;6.528;2023-09-07T10:39:04;29.30;99.90
52965;DHT22;42923;53.220;6.528;2023-09-07T10:41:45;29.70;99.90
52965;DHT22;42923;53.220;6.528;2023-09-07T10:44:11;30.10;99.90
52965;DHT22;42923;53.220;6.528;2023-09-07T10:46:38;30.30;99.90
52965;DHT22;42923;53.220;6.528;2023-09-07T10:49:08;30.60;99.90
52965;DHT22;42923;53.220;6.528;2023-09-07T10:51:43;30.90;95.70
52965;DHT22;42923;53.220;6.528;2023-09-07T10:54:17;31.10;94.20
52965;DHT22;42923;53.220;6.528;2023-09-07T10:56:44;31.30;93.10
52965;DHT22;42923;53.220;6.528;2023-09-07T10:59:12;31.50;92.60
52965;DHT22;42923;53.220;6.528;2023-09-07T11:01:38;31.80;90.50
52965;DHT22;42923;53.220;6.528;2023-09-07T11:04:04;32.00;89.10
52965;DHT22;42923;53.220;6.528;2023-09-07T11:06:31;32.20;86.40
52965;DHT22;42923;53.220;6.528;2023-09-07T11:09:00;32.40;84.90
52965;DHT22;42923;53.220;6.528;2023-09-07T11:11:26;32.40;80.50
52965;DHT22;42923;53.220;6.528;2023-09-07T11:13:52;32.40;79.90
52965;DHT22;42923;53.220;6.528;2023-09-07T11:16:18;32.40;80.30
52965;DHT22;42923;53.220;6.528;2023-09-07T11:18:45;32.60;81.70
52965;DHT22;42923;53.220;6.528;2023-09-07T11:21:11;32.60;78.40
52965;DHT22;42923;53.220;6.528;2023-09-07T11:23:37;32.70;78.30
52965;DHT22;42923;53.220;6.528;2023-09-07T11:26:07;32.80;78.70
52965;DHT22;42923;53.220;6.528;2023-09-07T11:28:33;33.00;75.80
52965;DHT22;42923;53.220;6.528;2023-09-07T11:30:59;33.20;74.90
52965;DHT22;42923;53.220;6.528;2023-09-07T11:33:25;33.20;73.80
52965;DHT22;42923;53.220;6.528;2023-09-07T11:35:53;33.30;74.90
52965;DHT22;42923;53.220;6.528;2023-09-07T11:38:21;33.50;74.40
52965;DHT22;42923;53.220;6.528;2023-09-07T11:40:48;33.70;71.50
52965;DHT22;42923;53.220;6.528;2023-09-07T11:43:15;33.80;71.70
52965;DHT22;42923;53.220;6.528;2023-09-07T11:45:42;34.00;69.60
52965;DHT22;42923;53.220;6.528;2023-09-07T11:48:08;34.00;69.10
52965;DHT22;42923;53.220;6.528;2023-09-07T11:50:35;34.00;69.10
52965;DHT22;42923;53.220;6.528;2023-09-07T11:53:01;34.00;67.50
52965;DHT22;42923;53.220;6.528;2023-09-07T11:55:26;34.00;66.90
52965;DHT22;42923;53.220;6.528;2023-09-07T11:57:52;34.00;66.90
52965;DHT22;42923;53.220;6.528;2023-09-07T12:00:19;34.10;67.70
52965;DHT22;42923;53.220;6.528;2023-09-07T12:02:45;34.10;66.60
52965;DHT22;42923;53.220;6.528;2023-09-07T12:05:11;34.10;67.60
52965;DHT22;42923;53.220;6.528;2023-09-07T12:07:40;34.20;66.00
52965;DHT22;42923;53.220;6.528;2023-09-07T12:10:06;34.30;65.50
52965;DHT22;42923;53.220;6.528;2023-09-07T12:12:42;34.40;66.70
52965;DHT22;42923;53.220;6.528;2023-09-07T12:15:10;34.50;64.40
52965;DHT22;42923;53.220;6.528;2023-09-07T12:17:37;34.60;63.80
52965;DHT22;42923;53.220;6.528;2023-09-07T12:20:04;34.80;63.60
52965;DHT22;42923;53.220;6.528;2023-09-07T12:22:38;34.90;64.00
52965;DHT22;42923;53.220;6.528;2023-09-07T12:25:05;35.00;63.90
52965;DHT22;42923;53.220;6.528;2023-09-07T12:27:34;35.10;63.40
52965;DHT22;42923;53.220;6.528;2023-09-07T12:30:01;35.10;62.10
52965;DHT22;42923;53.220;6.528;2023-09-07T12:32:28;35.00;61.50
52965;DHT22;42923;53.220;6.528;2023-09-07T12:34:54;35.00;61.00
52965;DHT22;42923;53.220;6.528;2023-09-07T12:37:20;35.10;60.60
52965;DHT22;42923;53.220;6.528;2023-09-07T12:39:49;35.30;61.30
52965;DHT22;42923;53.220;6.528;2023-09-07T12:42:15;35.50;61.20
52965;DHT22;42923;53.220;6.528;2023-09-07T12:44:41;35.70;62.20
52965;DHT22;42923;53.220;6.528;2023-09-07T12:47:06;35.90;61.60
52965;DHT22;42923;53.220;6.528;2023-09-07T12:49:32;36.00;60.30
52965;DHT22;42923;53.220;6.528;2023-09-07T12:51:58;36.10;59.80
52965;DHT22;42923;53.220;6.528;2023-09-07T12:54:23;36.10;59.70
52965;DHT22;42923;53.220;6.528;2023-09-07T12:56:49;36.30;59.50
52965;DHT22;42923;53.220;6.528;2023-09-07T12:59:15;36.40;59.60
52965;DHT22;42923;53.220;6.528;2023-09-07T13:01:40;36.40;59.80
52965;DHT22;42923;53.220;6.528;2023-09-07T13:04:06;36.50;60.10
52965;DHT22;42923;53.220;6.528;2023-09-07T13:06:32;36.60;60.30
52965;DHT22;42923;53.220;6.528;2023-09-07T13:08:58;36.80;58.70
52965;DHT22;42923;53.220;6.528;2023-09-07T13:11:23;36.70;58.80
52965;DHT22;42923;53.220;6.528;2023-09-07T13:13:49;36.60;58.40
52965;DHT22;42923;53.220;6.528;2023-09-07T13:16:15;36.80;59.60
52965;DHT22;42923;53.220;6.528;2023-09-07T13:18:41;37.00;59.10
52965;DHT22;42923;53.220;6.528;2023-09-07T13:21:07;37.30;58.80
52965;DHT22;42923;53.220;6.528;2023-09-07T13:23:33;37.50;58.30
52965;DHT22;42923;53.220;6.528;2023-09-07T13:25:59;37.60;57.60
52965;DHT22;42923;53.220;6.528;2023-09-07T13:28:26;37.40;57.10
52965;DHT22;42923;53.220;6.528;2023-09-07T13:30:52;37.30;56.70
52965;DHT22;42923;53.220;6.528;2023-09-07T13:33:18;37.30;57.30
52965;DHT22;42923;53.220;6.528;2023-09-07T13:35:43;37.30;57.20
52965;DHT22;42923;53.220;6.528;2023-09-07T13:38:10;37.50;57.40
52965;DHT22;42923;53.220;6.528;2023-09-07T13:40:35;37.70;57.60
52965;DHT22;42923;53.220;6.528;2023-09-07T13:43:01;37.90;56.50
52965;DHT22;42923;53.220;6.528;2023-09-07T13:45:27;38.00;55.30
52965;DHT22;42923;53.220;6.528;2023-09-07T13:47:55;38.00;56.00
52965;DHT22;42923;53.220;6.528;2023-09-07T13:50:21;38.10;55.30
52965;DHT22;42923;53.220;6.528;2023-09-07T13:52:47;38.20;54.50
52965;DHT22;42923;53.220;6.528;2023-09-07T13:55:13;38.40;54.80
52965;DHT22;42923;53.220;6.528;2023-09-07T13:57:38;38.50;55.40
52965;DHT22;42923;53.220;6.528;2023-09-07T14:00:05;38.70;54.60
52965;DHT22;42923;53.220;6.528;2023-09-07T14:02:31;38.80;53.60
52965;DHT22;42923;53.220;6.528;2023-09-07T14:04:58;38.80;53.30
52965;DHT22;42923;53.220;6.528;2023-09-07T14:07:24;38.80;53.20
52965;DHT22;42923;53.220;6.528;2023-09-07T14:09:54;38.90;53.60
52965;DHT22;42923;53.220;6.528;2023-09-07T14:12:20;39.00;53.10
52965;DHT22;42923;53.220;6.528;2023-09-07T14:14:45;39.10;52.20
52965;DHT22;42923;53.220;6.528;2023-09-07T14:17:11;39.10;52.20
52965;DHT22;42923;53.220;6.528;2023-09-07T14:19:37;39.10;52.50
52965;DHT22;42923;53.220;6.528;2023-09-07T14:22:03;39.10;51.30
52965;DHT22;42923;53.220;6.528;2023-09-07T14:24:28;39.20;51.60
52965;DHT22;42923;53.220;6.528;2023-09-07T14:26:54;39.20;52.20
52965;DHT22;42923;53.220;6.528;2023-09-07T14:29:20;39.30;51.50
52965;DHT22;42923;53.220;6.528;2023-09-07T14:31:46;39.20;51.60
52965;DHT22;42923;53.220;6.528;2023-09-07T14:34:12;39.10;51.10
52965;DHT22;42923;53.220;6.528;2023-09-07T14:36:38;39.00;51.30
52965;DHT22;42923;53.220;6.528;2023-09-07T14:39:06;38.80;50.90
52965;DHT22;42923;53.220;6.528;2023-09-07T14:41:34;38.60;50.90
52965;DHT22;42923;53.220;6.528;2023-09-07T14:44:00;38.60;51.30
52965;DHT22;42923;53.220;6.528;2023-09-07T14:46:26;38.80;50.90
52965;DHT22;42923;53.220;6.528;2023-09-07T14:48:52;38.90;50.60
52965;DHT22;42923;53.220;6.528;2023-09-07T14:51:18;38.90;50.70
52965;DHT22;42923;53.220;6.528;2023-09-07T14:53:44;38.90;51.50
52965;DHT22;42923;53.220;6.528;2023-09-07T14:56:11;39.00;51.30
52965;DHT22;42923;53.220;6.528;2023-09-07T14:58:37;39.10;51.20
52965;DHT22;42923;53.220;6.528;2023-09-07T15:01:03;39.00;51.30
52965;DHT22;42923;53.220;6.528;2023-09-07T15:03:29;38.90;51.20
52965;DHT22;42923;53.220;6.528;2023-09-07T15:05:56;38.80;51.30
52965;DHT22;42923;53.220;6.528;2023-09-07T15:08:21;38.80;51.90
52965;DHT22;42923;53.220;6.528;2023-09-07T15:10:47;38.60;51.60
52965;DHT22;42923;53.220;6.528;2023-09-07T15:13:13;37.80;51.90
52965;DHT22;42923;53.220;6.528;2023-09-07T15:15:39;36.70;52.50
52965;DHT22;42923;53.220;6.528;2023-09-07T15:18:09;35.60;53.20
52965;DHT22;42923;53.220;6.528;2023-09-07T15:20:37;34.70;53.80
52965;DHT22;42923;53.220;6.528;2023-09-07T15:23:03;33.90;54.40
52965;DHT22;42923;53.220;6.528;2023-09-07T15:25:29;33.20;55.30
52965;DHT22;42923;53.220;6.528;2023-09-07T15:27:56;32.60;55.90